Time;durP1;ratioP1;P1;durP2;ratioP2;P2;SDS_P1;SDS_P2;PMS_P1;PMS_P2;Temp;Humidity;BMP_temperature;BMP_pressure;BME280_temperature;BME280_humidity;BME280_pressure;Samples;Min_cycle;Max_cycle;Signal;HPM_P1;HPM_P2
2021/04/17 00:02:09;;;;;;;18.75;7.68;;;8.90;99.90;;;;;;4955995;29;20031;-79
2021/04/17 00:04:38;;;;;;;26.02;7.85;;;8.80;99.90;;;;;;4952238;29;20514;-79
2021/04/17 00:07:04;;;;;;;13.82;7.50;;;8.80;99.90;;;;;;4955988;29;20051;-79
2021/04/17 00:09:30;;;;;;;12.43;6.90;;;8.80;99.90;;;;;;4955540;29;20034;-79
2021/04/17 00:11:58;;;;;;;14.95;8.00;;;8.70;99.90;;;;;;4955293;29;20039;-78
2021/04/17 00:14:31;;;;;;;13.38;7.88;;;8.70;99.90;;;;;;4954669;29;20030;-78
2021/04/17 00:16:57;;;;;;;14.15;7.90;;;8.70;99.90;;;;;;4954669;29;20027;-79
2021/04/17 00:19:23;;;;;;;14.88;7.70;;;8.70;99.90;;;;;;4938394;29;20048;-79
2021/04/17 00:21:49;;;;;;;14.05;7.90;;;8.70;99.90;;;;;;4938327;29;20039;-79
2021/04/17 00:24:15;;;;;;;13.10;7.82;;;8.60;99.90;;;;;;4956032;29;20450;-79
2021/04/17 00:26:41;;;;;;;15.20;8.68;;;8.60;99.90;;;;;;4955452;29;20167;-79
2021/04/17 00:29:08;;;;;;;16.23;8.30;;;8.60;99.90;;;;;;4955987;29;20050;-79
2021/04/17 00:31:34;;;;;;;14.07;8.68;;;8.60;99.90;;;;;;4955327;29;20050;-79
2021/04/17 00:34:00;;;;;;;13.65;8.15;;;8.60;99.90;;;;;;4956047;29;20068;-79
2021/04/17 00:36:26;;;;;;;21.00;8.25;;;8.50;99.90;;;;;;4955354;29;20436;-79
2021/04/17 00:38:52;;;;;;;12.30;8.15;;;8.50;99.90;;;;;;4955648;29;20039;-79
2021/04/17 00:41:18;;;;;;;13.93;8.60;;;8.60;99.90;;;;;;4955552;29;20035;-79
2021/04/17 00:43:44;;;;;;;20.33;8.13;;;8.60;99.90;;;;;;4955347;29;20528;-78
2021/04/17 00:46:10;;;;;;;11.80;8.02;;;8.50;99.90;;;;;;4954943;29;20031;-78
2021/04/17 00:48:38;;;;;;;25.00;8.35;;;8.50;99.90;;;;;;4955117;29;20476;-78
2021/04/17 00:51:04;;;;;;;17.33;9.15;;;8.50;99.90;;;;;;4955003;29;20042;-78
2021/04/17 00:53:29;;;;;;;12.43;8.27;;;8.60;99.80;;;;;;4953926;28;20043;-78
2021/04/17 00:55:55;;;;;;;20.63;8.13;;;8.60;99.50;;;;;;4955135;29;20122;-79
2021/04/17 00:58:21;;;;;;;12.30;7.47;;;8.70;99.50;;;;;;4954908;29;20039;-78
2021/04/17 01:00:46;;;;;;;11.15;8.18;;;8.70;99.30;;;;;;4955296;29;20035;-80
2021/04/17 01:03:44;;;;;;;13.60;7.95;;;8.70;99.30;;;;;;4955179;29;20031;-78
2021/04/17 01:06:28;;;;;;;15.90;7.95;;;8.70;99.10;;;;;;4954801;29;20035;-79
2021/04/17 01:09:03;;;;;;;13.82;8.18;;;8.80;98.90;;;;;;4955039;29;20103;-78
2021/04/17 01:11:44;;;;;;;10.90;7.72;;;8.80;99.00;;;;;;4954727;29;20122;-79
2021/04/17 01:14:11;;;;;;;13.70;7.63;;;8.70;99.40;;;;;;4954829;29;20035;-78
2021/04/17 01:16:38;;;;;;;13.27;8.32;;;8.70;99.30;;;;;;4955147;29;20023;-78
2021/04/17 01:19:08;;;;;;;14.60;8.57;;;8.70;98.90;;;;;;4954408;29;20045;-78
2021/04/17 01:21:36;;;;;;;14.48;8.65;;;8.80;98.90;;;;;;4954531;29;20055;-79
2021/04/17 01:24:08;;;;;;;11.68;8.20;;;8.80;98.90;;;;;;4954539;29;20031;-79
2021/04/17 01:26:34;;;;;;;12.80;8.23;;;8.80;98.90;;;;;;4954574;29;20102;-79
2021/04/17 01:29:00;;;;;;;12.65;7.97;;;8.80;98.90;;;;;;4955045;29;20110;-78
2021/04/17 01:31:30;;;;;;;11.13;8.00;;;8.80;99.00;;;;;;4954514;29;20031;-79
2021/04/17 01:33:58;;;;;;;13.50;8.40;;;8.80;99.00;;;;;;4954826;29;20475;-78
2021/04/17 01:36:26;;;;;;;19.90;8.63;;;8.80;98.70;;;;;;4954578;29;20027;-78
2021/04/17 01:39:00;;;;;;;24.88;8.00;;;8.80;98.70;;;;;;4954718;29;20054;-79
2021/04/17 01:41:50;;;;;;;18.50;8.60;;;8.80;98.70;;;;;;4953933;29;20051;-79
2021/04/17 01:44:23;;;;;;;14.35;8.75;;;8.80;98.60;;;;;;4954290;29;20023;-79
2021/04/17 01:47:00;;;;;;;11.93;8.35;;;8.90;98.50;;;;;;4954480;29;20063;-78
2021/04/17 01:49:28;;;;;;;11.00;8.05;;;8.80;98.60;;;;;;4954216;29;20075;-79
2021/04/17 01:51:55;;;;;;;10.23;7.50;;;8.80;98.60;;;;;;4954121;29;20039;-79
2021/04/17 01:54:28;;;;;;;11.70;7.53;;;8.80;98.60;;;;;;4954028;29;20039;-79
2021/04/17 01:56:59;;;;;;;15.20;8.48;;;8.80;98.60;;;;;;4953722;29;20548;-78
2021/04/17 01:59:27;;;;;;;13.45;7.65;;;8.70;98.70;;;;;;4953805;29;20023;-79
2021/04/17 02:01:53;;;;;;;9.43;7.22;;;8.70;98.70;;;;;;4953905;29;20094;-79
2021/04/17 02:04:19;;;;;;;14.27;8.30;;;8.70;98.80;;;;;;4953591;28;20035;-79
2021/04/17 02:06:45;;;;;;;13.80;8.57;;;8.60;98.90;;;;;;4955301;28;20186;-79
2021/04/17 02:09:11;;;;;;;10.57;7.78;;;8.60;98.80;;;;;;4958319;28;20496;-78
2021/04/17 02:11:37;;;;;;;11.82;7.45;;;8.60;98.90;;;;;;4953696;29;20886;-78
2021/04/17 02:14:04;;;;;;;13.73;8.35;;;8.60;99.10;;;;;;4964573;28;20073;-78
2021/04/17 02:16:42;;;;;;;9.77;7.40;;;8.50;99.00;;;;;;4951781;29;20028;-79
2021/04/17 02:19:21;;;;;;;16.10;7.97;;;8.50;99.10;;;;;;4952406;29;20674;-79
2021/04/17 02:21:49;;;;;;;13.15;7.43;;;8.50;98.90;;;;;;4952734;29;20031;-79
2021/04/17 02:24:15;;;;;;;12.40;8.10;;;8.50;99.00;;;;;;4953113;29;20058;-80
2021/04/17 02:26:42;;;;;;;15.27;7.93;;;8.40;99.40;;;;;;4953097;29;20042;-79
2021/04/17 02:29:08;;;;;;;10.35;7.35;;;8.40;99.30;;;;;;4953427;29;20039;-79
2021/04/17 02:31:35;;;;;;;12.80;7.50;;;8.40;99.20;;;;;;4953362;29;20043;-79
2021/04/17 02:34:01;;;;;;;15.05;7.45;;;8.40;99.00;;;;;;4956122;28;20035;-80
2021/04/17 02:36:27;;;;;;;10.85;7.97;;;8.40;99.10;;;;;;4944257;29;20100;-78
2021/04/17 02:38:52;;;;;;;10.13;7.05;;;8.40;99.00;;;;;;4953557;29;20440;-80
2021/04/17 02:41:19;;;;;;;14.57;7.70;;;8.40;99.00;;;;;;4961171;28;20039;-79
2021/04/17 02:43:46;;;;;;;13.15;7.78;;;8.40;99.10;;;;;;4953538;29;20026;-79
2021/04/17 02:46:12;;;;;;;11.43;7.78;;;8.40;99.10;;;;;;4953210;29;20035;-79
2021/04/17 02:48:40;;;;;;;12.40;7.93;;;8.40;99.20;;;;;;4953470;29;20098;-79
2021/04/17 02:51:06;;;;;;;12.52;8.02;;;8.30;99.10;;;;;;4953098;29;20043;-79
2021/04/17 02:53:32;;;;;;;9.35;7.55;;;8.20;99.20;;;;;;4934560;29;20039;-80
2021/04/17 02:55:58;;;;;;;9.98;7.60;;;8.20;99.20;;;;;;4951344;29;20044;-80
2021/04/17 02:58:23;;;;;;;10.93;7.82;;;8.20;99.60;;;;;;4951441;29;20019;-80
2021/04/17 03:00:49;;;;;;;12.75;7.45;;;8.10;99.80;;;;;;4951168;29;20496;-79
2021/04/17 03:03:16;;;;;;;11.35;7.85;;;8.10;99.90;;;;;;4950980;29;20039;-79
2021/04/17 03:05:42;;;;;;;13.68;7.60;;;8.10;99.80;;;;;;4951895;29;20098;-79
2021/04/17 03:08:08;;;;;;;12.80;7.15;;;8.10;99.60;;;;;;4952168;29;20035;-81
2021/04/17 03:10:35;;;;;;;14.70;8.07;;;8.10;99.70;;;;;;4952878;29;20043;-79
2021/04/17 03:13:01;;;;;;;13.50;7.85;;;8.10;99.60;;;;;;4953443;29;20101;-79
2021/04/17 03:15:27;;;;;;;14.05;7.38;;;8.10;99.70;;;;;;4952078;28;20081;-79
2021/04/17 03:17:53;;;;;;;13.10;8.10;;;8.00;99.70;;;;;;4966030;28;20106;-79
2021/04/17 03:20:18;;;;;;;12.00;7.78;;;8.10;99.80;;;;;;4955171;29;20031;-79
2021/04/17 03:22:44;;;;;;;13.60;8.27;;;8.00;99.90;;;;;;4955882;29;20169;-80
2021/04/17 03:25:11;;;;;;;14.95;7.95;;;8.00;99.90;;;;;;4956090;29;20031;-78
2021/04/17 03:27:40;;;;;;;15.63;8.32;;;8.00;99.90;;;;;;4955986;29;20042;-79
2021/04/17 03:30:08;;;;;;;15.95;8.27;;;7.90;99.90;;;;;;4938779;29;20574;-79
2021/04/17 03:32:35;;;;;;;15.02;8.00;;;7.90;99.90;;;;;;4956263;29;20403;-79
2021/04/17 03:35:01;;;;;;;9.40;7.20;;;7.90;99.90;;;;;;4955242;29;20024;-79
2021/04/17 03:37:27;;;;;;;13.10;7.75;;;7.90;99.90;;;;;;4956404;29;20066;-79
2021/04/17 03:39:53;;;;;;;14.20;8.90;;;8.00;99.90;;;;;;4956189;29;20031;-79
2021/04/17 03:42:19;;;;;;;15.75;7.78;;;8.00;99.90;;;;;;4956451;29;20445;-79
2021/04/17 03:44:45;;;;;;;10.55;7.38;;;8.00;99.90;;;;;;4956387;29;20484;-81
2021/04/17 03:47:11;;;;;;;15.70;8.48;;;7.90;99.90;;;;;;4956735;29;20392;-80
2021/04/17 03:49:36;;;;;;;13.55;8.13;;;8.00;99.90;;;;;;4956540;29;20043;-79
2021/04/17 03:52:02;;;;;;;14.65;8.45;;;8.00;99.90;;;;;;4956493;29;20043;-80
2021/04/17 03:54:28;;;;;;;11.85;8.65;;;7.90;99.90;;;;;;4956214;29;20031;-80
2021/04/17 03:56:54;;;;;;;11.55;8.30;;;8.00;99.90;;;;;;4956532;29;20035;-79
2021/04/17 03:59:19;;;;;;;15.93;8.90;;;8.00;99.90;;;;;;4956292;29;20031;-79
2021/04/17 04:01:45;;;;;;;13.00;9.38;;;8.00;99.90;;;;;;4955925;29;20041;-79
2021/04/17 04:04:11;;;;;;;12.80;8.65;;;8.10;99.90;;;;;;4956396;29;20058;-79
2021/04/17 04:06:37;;;;;;;18.77;9.30;;;8.20;99.90;;;;;;4955970;29;20114;-79
2021/04/17 04:09:03;;;;;;;11.15;8.38;;;8.20;99.90;;;;;;4938755;29;20089;-81
2021/04/17 04:11:29;;;;;;;16.85;9.68;;;8.30;99.90;;;;;;4955696;29;20075;-79
2021/04/17 04:13:55;;;;;;;13.95;8.35;;;8.30;99.90;;;;;;4955717;29;20035;-80
2021/04/17 04:16:21;;;;;;;17.95;9.75;;;8.30;99.90;;;;;;4955940;29;20178;-79
2021/04/17 04:18:47;;;;;;;14.27;9.45;;;8.30;99.90;;;;;;4956063;29;20527;-80
2021/04/17 04:21:12;;;;;;;16.73;9.60;;;8.30;99.90;;;;;;4955767;29;20037;-79
2021/04/17 04:23:38;;;;;;;14.70;9.30;;;8.40;99.90;;;;;;4955808;29;20049;-79
2021/04/17 04:26:04;;;;;;;15.00;9.32;;;8.40;99.90;;;;;;4955718;28;20110;-79
2021/04/17 04:28:30;;;;;;;13.43;9.30;;;8.40;99.90;;;;;;4955813;29;20027;-79
2021/04/17 04:30:56;;;;;;;13.50;8.73;;;8.40;99.90;;;;;;4955558;29;20039;-79
2021/04/17 04:33:22;;;;;;;13.63;9.88;;;8.50;99.90;;;;;;4955691;29;20468;-78
2021/04/17 04:35:49;;;;;;;12.27;9.15;;;8.50;99.90;;;;;;4955702;29;20043;-80
2021/04/17 04:38:15;;;;;;;14.13;9.88;;;8.60;99.80;;;;;;4955058;29;20403;-80
2021/04/17 04:40:41;;;;;;;18.55;9.68;;;8.70;99.70;;;;;;4955304;29;20362;-79
2021/04/17 04:43:09;;;;;;;15.70;9.30;;;8.80;99.60;;;;;;4955352;29;20034;-79
2021/04/17 04:45:35;;;;;;;21.30;13.15;;;8.90;99.60;;;;;;4955732;29;20132;-79
2021/04/17 04:48:00;;;;;;;17.98;9.77;;;9.00;99.50;;;;;;4955253;29;20036;-79
2021/04/17 04:50:26;;;;;;;14.02;9.57;;;9.40;99.20;;;;;;4954874;29;20042;-79
2021/04/17 04:52:52;;;;;;;13.10;8.73;;;10.00;98.50;;;;;;4954889;29;20130;-79
2021/04/17 04:55:17;;;;;;;14.15;8.68;;;10.40;97.80;;;;;;4955135;29;20039;-80
2021/04/17 04:57:43;;;;;;;17.10;8.82;;;10.60;97.40;;;;;;4955142;29;20039;-80
2021/04/17 05:00:10;;;;;;;13.25;9.50;;;10.90;97.00;;;;;;4937903;29;20050;-79
2021/04/17 05:02:35;;;;;;;14.18;8.48;;;11.40;96.40;;;;;;4955066;29;20035;-80
2021/04/17 05:05:01;;;;;;;19.50;10.43;;;11.60;96.10;;;;;;4955005;29;20459;-79
2021/04/17 05:07:27;;;;;;;12.23;9.00;;;12.10;95.70;;;;;;4954954;29;20641;-80
2021/04/17 05:09:52;;;;;;;12.10;8.27;;;12.70;94.80;;;;;;4954845;29;20031;-79
2021/04/17 05:12:18;;;;;;;15.18;8.73;;;13.30;93.80;;;;;;4954625;29;20404;-80
2021/04/17 05:14:44;;;;;;;13.07;8.50;;;13.70;93.00;;;;;;4955017;29;20078;-80
2021/04/17 05:17:09;;;;;;;14.23;8.45;;;13.90;92.60;;;;;;4954900;29;20050;-80
2021/04/17 05:19:39;;;;;;;13.02;7.93;;;13.80;92.40;;;;;;4955018;29;20050;-80
2021/04/17 05:22:05;;;;;;;9.85;7.68;;;14.10;92.20;;;;;;4954797;29;20552;-80
2021/04/17 05:24:30;;;;;;;10.90;7.63;;;14.70;91.30;;;;;;4954539;29;20106;-80
2021/04/17 05:26:56;;;;;;;8.48;6.78;;;15.60;90.70;;;;;;4952923;28;20093;-80
2021/04/17 05:29:22;;;;;;;9.55;7.38;;;16.90;87.90;;;;;;4958327;28;20381;-80
2021/04/17 05:31:47;;;;;;;13.60;7.07;;;18.10;83.50;;;;;;4961362;28;20075;-80
2021/04/17 05:34:13;;;;;;;10.77;6.53;;;19.10;80.40;;;;;;4957066;28;20031;-80
2021/04/17 05:36:39;;;;;;;9.25;6.07;;;20.00;76.50;;;;;;4953932;29;20035;-80
2021/04/17 05:39:05;;;;;;;9.18;5.60;;;20.90;73.50;;;;;;4953725;28;20115;-80
2021/04/17 05:41:31;;;;;;;9.65;6.45;;;21.60;69.60;;;;;;4954194;29;20118;-81
2021/04/17 05:43:57;;;;;;;8.93;6.40;;;22.20;67.70;;;;;;4954710;29;20035;-80
2021/04/17 05:46:22;;;;;;;6.95;5.70;;;22.90;64.10;;;;;;4954309;29;20400;-81
2021/04/17 05:48:48;;;;;;;9.68;6.32;;;22.90;62.70;;;;;;4954772;29;20039;-80
2021/04/17 05:51:14;;;;;;;8.30;5.93;;;22.60;62.70;;;;;;4958482;28;20030;-80
2021/04/17 05:53:40;;;;;;;6.53;5.80;;;21.80;63.10;;;;;;4954309;29;20492;-80
2021/04/17 05:56:06;;;;;;;8.88;6.13;;;21.40;63.60;;;;;;4954245;29;20055;-80
2021/04/17 05:58:32;;;;;;;6.88;5.32;;;21.20;64.60;;;;;;4950445;28;20027;-81
2021/04/17 06:00:58;;;;;;;7.75;5.95;;;20.70;65.20;;;;;;4935083;29;20039;-81
2021/04/17 06:03:23;;;;;;;16.73;9.60;;;20.70;65.50;;;;;;4952791;29;20042;-80
2021/04/17 06:05:49;;;;;;;11.07;7.45;;;21.50;64.90;;;;;;4953419;29;20417;-81
2021/04/17 06:08:17;;;;;;;57.33;28.95;;;22.50;62.60;;;;;;4953819;29;20039;-81
2021/04/17 06:10:43;;;;;;;76.75;37.15;;;23.50;61.00;;;;;;4953586;29;20046;-81
2021/04/17 06:13:08;;;;;;;8.23;6.13;;;23.90;59.80;;;;;;4954001;29;20397;-84
2021/04/17 06:15:34;;;;;;;8.90;5.88;;;23.40;59.60;;;;;;4936640;29;20416;-79
2021/04/17 06:18:00;;;;;;;12.18;7.97;;;22.80;60.20;;;;;;4953915;29;20101;-81
2021/04/17 06:20:25;;;;;;;14.38;8.93;;;21.90;61.70;;;;;;4954145;29;20024;-81
2021/04/17 06:22:51;;;;;;;8.73;6.22;;;21.80;62.40;;;;;;4953861;29;20027;-81
2021/04/17 06:25:17;;;;;;;8.43;6.57;;;21.40;62.00;;;;;;4953705;29;20066;-81
2021/04/17 06:27:42;;;;;;;12.48;7.10;;;20.90;63.40;;;;;;4953608;29;20035;-81
2021/04/17 06:30:09;;;;;;;14.05;10.15;;;20.60;64.20;;;;;;4953543;29;20403;-81
2021/04/17 06:32:35;;;;;;;11.13;7.00;;;19.50;65.10;;;;;;4953168;29;20448;-80
2021/04/17 06:35:01;;;;;;;17.50;11.15;;;18.70;67.20;;;;;;4953092;29;20028;-81
2021/04/17 06:37:26;;;;;;;10.38;8.38;;;18.10;68.30;;;;;;4952645;29;20032;-81
2021/04/17 06:39:52;;;;;;;13.05;7.85;;;18.20;68.80;;;;;;4952562;29;20035;-81
2021/04/17 06:42:20;;;;;;;10.23;6.93;;;18.90;67.70;;;;;;4952854;29;20404;-81
2021/04/17 06:44:47;;;;;;;7.35;6.55;;;19.60;66.20;;;;;;4952731;29;20023;-80
2021/04/17 06:47:15;;;;;;;12.50;7.18;;;19.30;65.80;;;;;;4953237;29;20476;-81
2021/04/17 06:49:43;;;;;;;18.27;7.43;;;19.80;65.80;;;;;;4953499;28;20035;-82
2021/04/17 06:52:13;;;;;;;8.93;7.00;;;21.00;63.90;;;;;;4956964;29;20035;-80
2021/04/17 06:54:41;;;;;;;7.75;6.75;;;22.70;61.30;;;;;;4957087;29;20028;-78
2021/04/17 06:57:06;;;;;;;13.63;5.70;;;22.90;59.60;;;;;;4957449;29;20547;-80
2021/04/17 06:59:33;;;;;;;8.00;6.05;;;22.90;59.80;;;;;;4957041;28;20036;-79
2021/04/17 07:01:59;;;;;;;8.30;5.93;;;23.70;59.00;;;;;;4956933;29;20102;-79
2021/04/17 07:04:26;;;;;;;8.07;6.10;;;24.50;58.10;;;;;;4957180;29;20114;-82
2021/04/17 07:06:53;;;;;;;7.22;5.50;;;24.90;56.90;;;;;;4956952;29;20399;-82
2021/04/17 07:09:22;;;;;;;7.78;5.68;;;24.50;56.70;;;;;;4957025;29;20035;-84
2021/04/17 07:11:49;;;;;;;7.55;5.75;;;24.00;57.50;;;;;;4956341;29;20459;-82
2021/04/17 07:14:16;;;;;;;8.32;5.18;;;24.00;57.70;;;;;;4957021;29;20019;-83
2021/04/17 07:17:03;;;;;;;8.27;5.75;;;23.90;57.50;;;;;;4957041;29;20038;-83
2021/04/17 07:19:47;;;;;;;9.00;5.82;;;24.00;57.40;;;;;;4957196;29;20036;-82
2021/04/17 07:22:25;;;;;;;7.13;5.82;;;24.80;56.20;;;;;;4956925;29;20392;-81
2021/04/17 07:25:04;;;;;;;11.63;6.32;;;24.10;56.50;;;;;;4956788;29;20067;-82
2021/04/17 07:27:41;;;;;;;10.25;6.38;;;24.50;56.10;;;;;;4956787;29;20110;-82
2021/04/17 07:30:14;;;;;;;6.68;5.32;;;25.10;55.70;;;;;;4956711;29;20031;-81
2021/04/17 07:32:47;;;;;;;6.53;5.07;;;25.60;55.30;;;;;;4956025;29;20118;-81
2021/04/17 07:35:19;;;;;;;10.60;5.53;;;24.40;55.80;;;;;;4954148;29;20440;-76
2021/04/17 07:37:48;;;;;;;6.80;5.95;;;24.10;56.20;;;;;;4958308;28;20041;-84
2021/04/17 07:40:23;;;;;;;8.07;5.00;;;24.60;55.70;;;;;;4953658;29;20041;-76
2021/04/17 07:42:54;;;;;;;6.13;5.07;;;24.50;55.60;;;;;;4957310;28;20507;-77
2021/04/17 07:45:23;;;;;;;7.55;5.65;;;24.10;55.50;;;;;;4950306;28;20189;-77
2021/04/17 07:47:50;;;;;;;9.40;4.93;;;24.20;56.50;;;;;;4959203;28;20070;-77
2021/04/17 07:50:17;;;;;;;8.30;5.53;;;24.70;55.30;;;;;;4950966;28;20038;-77
2021/04/17 07:52:43;;;;;;;6.63;5.93;;;24.90;55.10;;;;;;4947762;29;20097;-77
2021/04/17 07:55:11;;;;;;;15.13;5.63;;;24.30;55.40;;;;;;4946057;29;20024;-77
2021/04/17 07:57:38;;;;;;;9.25;5.20;;;24.70;55.70;;;;;;4944063;29;20115;-77
2021/04/17 08:00:07;;;;;;;6.40;5.32;;;24.20;55.20;;;;;;4945449;29;20027;-78
2021/04/17 08:02:34;;;;;;;9.38;6.63;;;23.60;56.00;;;;;;4945933;28;20152;-77
2021/04/17 08:05:01;;;;;;;9.40;5.65;;;23.00;56.60;;;;;;4956762;28;20117;-76
2021/04/17 08:07:28;;;;;;;8.70;5.95;;;21.70;57.70;;;;;;4958364;28;20031;-77
2021/04/17 08:09:57;;;;;;;7.47;5.22;;;20.40;60.20;;;;;;4956974;28;20459;-77
2021/04/17 08:12:24;;;;;;;12.02;5.05;;;19.70;61.40;;;;;;4953485;28;20177;-77
2021/04/17 08:14:50;;;;;;;8.88;5.18;;;19.70;62.80;;;;;;4955343;29;20046;-74
2021/04/17 08:17:17;;;;;;;7.25;5.75;;;19.20;63.00;;;;;;4956410;28;20133;-76
2021/04/17 08:19:43;;;;;;;15.50;5.57;;;18.50;64.00;;;;;;4954571;28;20174;-73
2021/04/17 08:22:09;;;;;;;9.23;5.80;;;18.10;64.90;;;;;;4948274;28;20110;-81
2021/04/17 08:24:35;;;;;;;7.63;5.72;;;17.60;65.70;;;;;;4949736;28;20782;-75
2021/04/17 08:27:02;;;;;;;15.07;4.93;;;17.10;66.30;;;;;;4951882;29;20504;-77
2021/04/17 08:29:46;;;;;;;7.93;6.22;;;17.00;67.70;;;;;;4954500;29;20020;-74
2021/04/17 08:32:31;;;;;;;11.60;6.07;;;16.50;68.20;;;;;;4954940;29;20039;-75
2021/04/17 08:35:07;;;;;;;11.25;7.57;;;16.10;68.60;;;;;;4954605;29;20028;-76
2021/04/17 08:37:54;;;;;;;9.63;6.18;;;15.80;70.60;;;;;;4944810;28;21385;-76
2021/04/17 08:40:38;;;;;;;10.93;6.32;;;15.50;70.30;;;;;;4957886;28;20087;-74
2021/04/17 08:43:12;;;;;;;15.32;8.23;;;15.50;70.10;;;;;;4959960;28;20547;-76
2021/04/17 08:46:02;;;;;;;9.43;6.93;;;15.20;72.20;;;;;;4954891;29;20122;-76
2021/04/17 08:48:40;;;;;;;9.73;6.82;;;15.10;71.50;;;;;;4954090;29;20079;-75
2021/04/17 08:51:39;;;;;;;8.65;6.60;;;15.40;71.40;;;;;;4955446;28;20050;-77
2021/04/17 08:54:08;;;;;;;8.95;6.30;;;15.60;70.90;;;;;;4910251;29;20043;-76
2021/04/17 08:56:54;;;;;;;7.68;6.60;;;15.80;71.30;;;;;;4953786;28;20031;-76
2021/04/17 08:59:21;;;;;;;7.90;5.95;;;15.90;70.90;;;;;;4958703;28;20360;-75
2021/04/17 09:01:48;;;;;;;10.38;5.53;;;16.00;70.30;;;;;;4953413;28;20043;-76
2021/04/17 09:04:15;;;;;;;8.32;6.70;;;16.30;71.60;;;;;;4955827;28;20027;-76
2021/04/17 09:06:42;;;;;;;9.70;6.40;;;16.50;70.70;;;;;;4958382;28;20031;-77
2021/04/17 09:09:20;;;;;;;7.45;5.55;;;16.50;69.50;;;;;;4954023;29;20122;-77
2021/04/17 09:12:13;;;;;;;9.05;6.78;;;16.30;70.60;;;;;;4950950;29;20039;-76
2021/04/17 09:14:42;;;;;;;10.27;6.85;;;16.50;70.30;;;;;;4951206;29;20027;-76
2021/04/17 09:17:29;;;;;;;10.80;8.13;;;16.50;70.20;;;;;;4953338;29;20046;-76
2021/04/17 09:19:54;;;;;;;11.05;7.55;;;16.50;70.80;;;;;;4952709;29;20043;-78
2021/04/17 09:22:26;;;;;;;7.82;6.53;;;16.30;70.50;;;;;;4951395;29;20531;-76
2021/04/17 09:24:56;;;;;;;8.68;6.10;;;16.30;71.40;;;;;;4957053;28;20038;-78
2021/04/17 09:27:30;;;;;;;8.57;6.40;;;16.50;70.70;;;;;;4955858;28;20172;-78
2021/04/17 09:29:56;;;;;;;12.27;6.85;;;16.50;71.20;;;;;;4957621;28;20030;-77
2021/04/17 09:32:22;;;;;;;15.27;6.72;;;16.70;70.70;;;;;;4956876;28;20391;-77
2021/04/17 09:34:47;;;;;;;16.35;10.75;;;16.70;70.60;;;;;;4950827;28;20075;-77
2021/04/17 09:37:13;;;;;;;8.07;6.25;;;16.60;70.80;;;;;;4955059;28;20058;-78
2021/04/17 09:39:45;;;;;;;8.75;6.32;;;16.60;71.00;;;;;;4953950;29;20063;-77
2021/04/17 09:42:11;;;;;;;8.52;5.97;;;16.50;70.50;;;;;;4952875;29;20030;-77
2021/04/17 09:44:47;;;;;;;12.43;6.80;;;16.40;71.40;;;;;;4952675;29;20035;-78
2021/04/17 09:47:16;;;;;;;11.15;6.90;;;16.70;71.10;;;;;;4953062;29;20385;-77
2021/04/17 09:49:47;;;;;;;15.63;10.07;;;16.70;70.90;;;;;;4945754;29;20556;-77
2021/04/17 09:52:22;;;;;;;7.83;5.83;;;16.60;71.00;;;;;;4934357;29;20051;-77
2021/04/17 09:54:59;;;;;;;15.52;6.82;;;16.20;71.20;;;;;;4934819;29;20047;-77
2021/04/17 09:57:25;;;;;;;18.30;11.45;;;16.50;71.70;;;;;;4939935;29;20023;-77
2021/04/17 09:59:59;;;;;;;12.43;7.10;;;16.70;71.70;;;;;;4936596;29;20440;-77
2021/04/17 10:02:40;;;;;;;16.38;11.43;;;16.70;71.40;;;;;;4933573;29;20489;-77
2021/04/17 10:05:06;;;;;;;14.37;8.57;;;16.70;71.40;;;;;;4937146;29;20090;-75
2021/04/17 10:07:41;;;;;;;9.23;5.80;;;17.00;71.70;;;;;;4933100;29;20095;-76
2021/04/17 10:10:08;;;;;;;10.13;6.47;;;17.00;70.20;;;;;;4934724;29;20039;-77
2021/04/17 10:12:49;;;;;;;11.00;5.80;;;16.80;70.50;;;;;;4933564;29;20040;-77
2021/04/17 10:15:20;;;;;;;8.23;5.30;;;16.90;71.30;;;;;;4935176;29;20023;-78
2021/04/17 10:17:50;;;;;;;5.18;4.68;;;17.10;70.90;;;;;;4935079;29;20342;-77
2021/04/17 10:20:17;;;;;;;10.98;6.93;;;17.30;71.40;;;;;;4936531;29;20039;-77
2021/04/17 10:22:57;;;;;;;9.38;5.78;;;17.40;71.10;;;;;;4935977;29;20039;-77
2021/04/17 10:25:40;;;;;;;12.52;7.95;;;17.60;70.40;;;;;;4940086;29;20412;-77
2021/04/17 10:28:26;;;;;;;10.07;7.28;;;17.70;69.20;;;;;;4952196;29;20265;-77
2021/04/17 10:30:54;;;;;;;14.13;7.13;;;17.50;69.40;;;;;;4952503;29;20035;-78
2021/04/17 10:33:22;;;;;;;7.03;4.85;;;16.70;69.70;;;;;;4952261;29;20031;-84
2021/04/17 10:35:49;;;;;;;6.45;5.45;;;16.60;70.50;;;;;;4932761;29;20059;-77
2021/04/17 10:38:36;;;;;;;9.40;4.88;;;16.50;70.30;;;;;;4952594;29;20024;-87
2021/04/17 10:41:03;;;;;;;6.35;4.63;;;16.70;71.90;;;;;;4953698;28;20035;-87
2021/04/17 10:43:30;;;;;;;14.52;8.02;;;16.90;71.30;;;;;;4952550;28;20028;-83
2021/04/17 10:46:01;;;;;;;7.10;5.15;;;17.20;71.10;;;;;;4959953;28;20492;-86
2021/04/17 10:48:29;;;;;;;8.52;5.13;;;17.10;69.90;;;;;;4952593;29;20082;-78
2021/04/17 10:51:03;;;;;;;7.05;5.50;;;16.70;70.00;;;;;;4951699;29;20050;-87
2021/04/17 10:53:40;;;;;;;8.82;4.28;;;16.40;70.50;;;;;;4952101;29;20035;-82
2021/04/17 10:56:20;;;;;;;7.80;5.75;;;16.40;71.10;;;;;;4951731;29;20071;-78
2021/04/17 10:58:57;;;;;;;6.00;4.88;;;16.30;71.60;;;;;;4952680;29;20556;-85
2021/04/17 11:01:25;;;;;;;6.90;4.72;;;16.10;71.40;;;;;;4952434;29;20429;-76
2021/04/17 11:03:58;;;;;;;5.30;4.50;;;15.80;71.80;;;;;;4952044;29;20625;-80
2021/04/17 11:06:25;;;;;;;10.02;4.72;;;15.90;72.70;;;;;;4952130;29;20484;-78
2021/04/17 11:09:13;;;;;;;4.80;4.30;;;16.00;72.50;;;;;;4951788;29;20403;-83
2021/04/17 11:11:57;;;;;;;7.80;4.55;;;16.10;71.80;;;;;;4951895;29;20492;-79
2021/04/17 11:14:28;;;;;;;10.50;4.85;;;16.10;70.80;;;;;;4952036;29;20551;-80
2021/04/17 11:16:55;;;;;;;8.52;4.63;;;16.00;71.60;;;;;;4950808;29;20031;-79
2021/04/17 11:19:34;;;;;;;5.47;4.28;;;16.00;72.10;;;;;;4952147;29;20039;-81
2021/04/17 11:22:12;;;;;;;4.85;4.35;;;16.10;71.90;;;;;;4952238;28;20063;-83
2021/04/17 11:24:40;;;;;;;6.35;4.80;;;16.10;71.50;;;;;;4952946;28;20130;-79
2021/04/17 11:27:06;;;;;;;9.98;5.05;;;16.30;71.70;;;;;;4952939;28;20188;-81
2021/04/17 11:29:32;;;;;;;8.60;4.25;;;16.30;71.10;;;;;;4952039;29;20047;-81
2021/04/17 11:31:58;;;;;;;5.57;4.05;;;16.00;70.10;;;;;;4959488;28;20067;-78
2021/04/17 11:34:24;;;;;;;6.28;4.50;;;15.90;70.40;;;;;;4954036;28;20031;-81
2021/04/17 11:36:50;;;;;;;8.18;4.55;;;15.80;71.50;;;;;;4953339;28;20038;-81
2021/04/17 11:39:17;;;;;;;5.65;5.00;;;15.60;71.40;;;;;;4955704;29;20058;-76
2021/04/17 11:41:43;;;;;;;6.35;4.95;;;15.70;72.00;;;;;;4950677;29;20046;-81
2021/04/17 11:44:09;;;;;;;7.75;5.10;;;15.80;71.60;;;;;;4955520;29;20082;-81
2021/04/17 11:46:36;;;;;;;12.93;5.40;;;15.80;72.60;;;;;;4957073;28;20114;-81
2021/04/17 11:49:03;;;;;;;11.15;5.18;;;15.70;72.70;;;;;;4955505;29;20015;-78
2021/04/17 11:51:29;;;;;;;5.57;4.57;;;15.60;72.70;;;;;;4961593;28;20031;-80
2021/04/17 11:53:54;;;;;;;10.48;5.40;;;15.70;71.80;;;;;;4954334;29;20063;-79
2021/04/17 11:56:20;;;;;;;8.45;4.93;;;15.60;71.80;;;;;;4939099;28;20128;-79
2021/04/17 11:58:46;;;;;;;7.10;5.22;;;15.70;71.70;;;;;;4953461;28;20073;-81
2021/04/17 12:01:12;;;;;;;10.77;4.43;;;15.70;72.80;;;;;;4952048;29;20054;-80
2021/04/17 12:03:38;;;;;;;7.45;4.88;;;15.80;72.30;;;;;;4952573;29;20058;-82
2021/04/17 12:06:04;;;;;;;9.88;4.80;;;15.90;71.90;;;;;;4945717;29;20024;-79
2021/04/17 12:08:30;;;;;;;10.57;4.38;;;16.00;71.70;;;;;;4933273;29;20382;-79
2021/04/17 12:10:55;;;;;;;8.93;4.30;;;16.00;72.60;;;;;;4940778;29;20126;-78
2021/04/17 12:13:21;;;;;;;6.70;4.18;;;16.00;73.10;;;;;;4953328;28;20043;-80
2021/04/17 12:15:48;;;;;;;5.18;4.55;;;16.20;73.10;;;;;;4951661;29;20500;-79
2021/04/17 12:18:15;;;;;;;6.47;4.25;;;16.30;72.40;;;;;;4953407;29;20153;-78
2021/04/17 12:20:41;;;;;;;11.02;5.10;;;16.10;70.60;;;;;;4953288;29;20040;-76
2021/04/17 12:23:07;;;;;;;8.00;5.00;;;16.10;72.30;;;;;;4954409;29;20027;-75
2021/04/17 12:25:33;;;;;;;5.40;4.03;;;16.00;72.80;;;;;;4954853;29;20443;-78
2021/04/17 12:27:59;;;;;;;6.07;4.13;;;15.90;72.70;;;;;;4954606;29;20031;-75
2021/04/17 12:30:25;;;;;;;6.20;4.13;;;15.80;73.50;;;;;;4954169;29;20514;-80
2021/04/17 12:32:51;;;;;;;4.40;4.00;;;15.80;73.30;;;;;;4940107;29;20512;-78
2021/04/17 12:35:20;;;;;;;4.78;3.92;;;15.90;73.10;;;;;;4953666;29;20229;-80
2021/04/17 12:37:47;;;;;;;7.03;4.38;;;16.00;73.00;;;;;;4956290;28;20047;-77
2021/04/17 12:40:14;;;;;;;10.45;4.80;;;15.80;71.60;;;;;;4953599;29;20031;-76
2021/04/17 12:42:40;;;;;;;5.25;3.85;;;15.70;72.00;;;;;;4947177;29;20487;-80
2021/04/17 12:45:08;;;;;;;15.48;4.90;;;15.60;73.00;;;;;;4952660;29;20384;-79
2021/04/17 12:47:34;;;;;;;6.30;4.45;;;15.40;73.30;;;;;;4953417;28;20031;-76
2021/04/17 12:50:00;;;;;;;11.38;4.70;;;15.20;73.00;;;;;;4953271;29;20855;-79
2021/04/17 12:52:26;;;;;;;9.57;5.13;;;15.00;73.30;;;;;;4951907;28;20745;-76